Time;durP1;ratioP1;P1;durP2;ratioP2;P2;SDS_P1;SDS_P2;PMS_P1;PMS_P2;Temp;Humidity;BMP_temperature;BMP_pressure;BME280_temperature;BME280_humidity;BME280_pressure;Samples;Min_cycle;Max_cycle;Signal;HPM_P1;HPM_P2
2023/03/29 00:01:50;;;;;;;4.97;3.50;;;6.40;99.90;;;;;;5135986;27;20047;-70
2023/03/29 00:04:18;;;;;;;4.75;3.15;;;6.40;99.90;;;;;;5154076;27;20069;-70
2023/03/29 00:06:46;;;;;;;3.55;3.05;;;6.40;99.90;;;;;;5154513;27;20099;-70
2023/03/29 00:09:13;;;;;;;4.55;3.40;;;6.40;99.90;;;;;;5154074;27;20082;-70
2023/03/29 00:11:39;;;;;;;5.03;3.38;;;6.40;99.90;;;;;;5154130;27;20047;-70
2023/03/29 00:14:05;;;;;;;3.30;3.00;;;6.40;99.90;;;;;;5153931;27;20049;-70
2023/03/29 00:16:31;;;;;;;4.90;3.38;;;6.30;99.90;;;;;;5154399;27;20043;-70
2023/03/29 00:18:57;;;;;;;3.50;2.90;;;6.40;99.90;;;;;;5153762;27;20495;-70
2023/03/29 00:21:23;;;;;;;5.00;3.13;;;6.30;99.90;;;;;;5136811;27;20046;-70
2023/03/29 00:23:49;;;;;;;5.22;3.40;;;6.30;99.90;;;;;;5158245;27;20371;-69
2023/03/29 00:26:14;;;;;;;4.30;3.08;;;6.30;99.90;;;;;;5158113;27;20042;-70
2023/03/29 00:28:40;;;;;;;4.18;3.15;;;6.30;99.90;;;;;;5158159;27;20387;-70
2023/03/29 00:31:12;;;;;;;4.00;3.38;;;6.30;99.90;;;;;;5157720;27;20043;-70
2023/03/29 00:33:39;;;;;;;5.10;3.05;;;6.30;99.90;;;;;;5158277;27;20054;-70
2023/03/29 00:36:06;;;;;;;3.58;3.08;;;6.30;99.90;;;;;;5157820;27;20054;-70
2023/03/29 00:38:32;;;;;;;6.65;3.30;;;6.30;99.90;;;;;;5157867;27;20110;-70
2023/03/29 00:40:58;;;;;;;3.42;3.13;;;6.30;99.90;;;;;;5157869;27;20038;-70
2023/03/29 00:43:24;;;;;;;5.35;3.03;;;6.30;99.90;;;;;;5139140;27;20614;-70
2023/03/29 00:45:50;;;;;;;5.43;3.28;;;6.30;99.90;;;;;;5158020;27;20078;-69
2023/03/29 00:48:20;;;;;;;4.45;3.20;;;6.30;99.90;;;;;;5157629;27;20046;-69
2023/03/29 00:51:00;;;;;;;5.95;3.42;;;6.30;99.90;;;;;;5157601;27;20047;-70
2023/03/29 00:53:37;;;;;;;6.65;3.10;;;6.30;99.90;;;;;;5157425;27;20089;-70
2023/03/29 00:56:15;;;;;;;3.40;3.10;;;6.30;99.90;;;;;;5157421;27;20088;-70
2023/03/29 00:58:58;;;;;;;4.68;3.38;;;6.30;99.90;;;;;;5139599;27;20054;-70
2023/03/29 01:01:32;;;;;;;3.80;3.40;;;6.30;99.90;;;;;;5139139;27;20046;-70
2023/03/29 01:04:32;;;;;;;5.15;3.47;;;6.30;99.90;;;;;;5157684;27;20061;-69
2023/03/29 01:07:24;;;;;;;4.63;3.53;;;6.30;99.90;;;;;;5142499;27;20047;-69
2023/03/29 01:09:57;;;;;;;5.45;3.63;;;6.30;99.90;;;;;;5157173;27;20035;-69
2023/03/29 01:12:28;;;;;;;6.55;3.65;;;6.30;99.90;;;;;;5157289;27;20042;-69
2023/03/29 01:15:07;;;;;;;5.43;3.08;;;6.30;99.90;;;;;;5157644;27;20098;-69
2023/03/29 01:17:33;;;;;;;3.70;3.40;;;6.30;99.90;;;;;;5157209;27;20039;-69
2023/03/29 01:20:37;;;;;;;5.10;3.83;;;6.20;99.90;;;;;;5156840;27;20122;-71
2023/03/29 01:23:18;;;;;;;5.47;4.03;;;6.20;99.90;;;;;;5157136;27;20055;-70
2023/03/29 01:26:03;;;;;;;6.15;3.95;;;6.20;99.90;;;;;;5156949;27;20212;-69
2023/03/29 01:28:34;;;;;;;5.07;3.67;;;6.20;99.90;;;;;;5156956;27;20055;-69
2023/03/29 01:31:25;;;;;;;5.38;4.78;;;6.20;99.90;;;;;;5156497;27;20468;-70
2023/03/29 01:33:59;;;;;;;5.72;4.20;;;6.30;99.90;;;;;;5156897;27;20038;-69
2023/03/29 01:36:37;;;;;;;4.22;3.83;;;6.30;99.90;;;;;;5157189;27;20038;-70
2023/03/29 01:39:05;;;;;;;6.95;4.30;;;6.30;99.90;;;;;;5157228;27;20107;-69
2023/03/29 01:41:38;;;;;;;6.05;4.88;;;6.30;99.90;;;;;;5156826;27;20046;-69
2023/03/29 01:44:24;;;;;;;5.60;4.50;;;6.30;99.90;;;;;;5156885;27;20114;-69
2023/03/29 01:47:12;;;;;;;5.07;4.32;;;6.30;99.90;;;;;;5156678;27;20063;-70
2023/03/29 01:49:55;;;;;;;5.65;4.85;;;6.30;99.90;;;;;;5157186;27;20049;-70
2023/03/29 01:52:31;;;;;;;6.22;4.63;;;6.30;99.90;;;;;;5156973;27;20052;-70
2023/03/29 01:55:12;;;;;;;5.07;4.53;;;6.30;99.90;;;;;;5156314;27;20115;-69
2023/03/29 01:57:41;;;;;;;6.25;4.68;;;6.30;99.90;;;;;;5156863;27;20116;-70
2023/03/29 02:00:13;;;;;;;6.55;4.80;;;6.30;99.90;;;;;;5156555;27;20043;-70
2023/03/29 02:02:43;;;;;;;4.85;4.38;;;6.20;99.90;;;;;;5156487;27;20436;-70
2023/03/29 02:05:09;;;;;;;6.22;5.15;;;6.20;99.90;;;;;;5156671;27;20043;-70
2023/03/29 02:07:37;;;;;;;8.27;5.20;;;6.20;99.90;;;;;;5156154;27;20050;-69
2023/03/29 02:10:05;;;;;;;9.43;5.05;;;6.20;99.90;;;;;;5156174;27;20144;-70
2023/03/29 02:12:32;;;;;;;5.97;5.35;;;6.30;99.90;;;;;;5156478;27;20046;-70
2023/03/29 02:14:59;;;;;;;5.65;4.50;;;6.30;99.90;;;;;;5155947;27;20125;-70
2023/03/29 02:17:26;;;;;;;5.63;4.82;;;6.20;99.90;;;;;;5155733;27;20050;-70
2023/03/29 02:20:12;;;;;;;6.55;4.60;;;6.30;99.90;;;;;;5156037;27;20059;-70
2023/03/29 02:22:47;;;;;;;8.00;5.00;;;6.30;99.90;;;;;;5156323;27;20179;-70
2023/03/29 02:25:14;;;;;;;6.03;5.07;;;6.30;99.90;;;;;;5156286;27;20065;-70
2023/03/29 02:27:40;;;;;;;7.85;5.00;;;6.20;99.90;;;;;;5155691;27;20034;-70
2023/03/29 02:30:08;;;;;;;6.30;4.75;;;6.20;99.90;;;;;;5137437;27;20045;-70
2023/03/29 02:32:59;;;;;;;7.03;5.65;;;6.10;99.90;;;;;;5137890;27;20110;-70
2023/03/29 02:35:35;;;;;;;6.50;5.30;;;6.10;99.90;;;;;;5156025;27;20121;-70
2023/03/29 02:38:03;;;;;;;7.00;4.90;;;6.20;99.90;;;;;;5155578;27;20050;-69
2023/03/29 02:40:32;;;;;;;7.53;5.45;;;6.20;99.90;;;;;;5155314;27;20529;-70
2023/03/29 02:43:00;;;;;;;5.75;5.13;;;6.20;99.90;;;;;;5155414;27;20078;-70
2023/03/29 02:45:27;;;;;;;6.60;5.30;;;6.20;99.90;;;;;;5136367;27;20451;-70
2023/03/29 02:47:56;;;;;;;7.03;5.38;;;6.30;99.90;;;;;;5156023;27;20046;-70
2023/03/29 02:50:24;;;;;;;6.40;5.38;;;6.20;99.90;;;;;;5155499;27;20114;-70
2023/03/29 02:52:54;;;;;;;7.90;5.53;;;6.20;99.90;;;;;;5155255;27;20516;-69
2023/03/29 02:55:23;;;;;;;6.63;5.65;;;6.20;99.90;;;;;;5137460;27;20058;-69
2023/03/29 02:57:49;;;;;;;6.72;5.55;;;6.20;99.90;;;;;;5155331;27;20039;-70
2023/03/29 03:00:17;;;;;;;8.18;5.35;;;6.20;99.90;;;;;;5155264;27;20353;-70
2023/03/29 03:02:43;;;;;;;6.05;5.03;;;6.20;99.90;;;;;;5155161;27;20047;-70
2023/03/29 03:05:09;;;;;;;8.23;5.93;;;6.20;99.90;;;;;;5155364;27;20057;-69
2023/03/29 03:07:34;;;;;;;7.97;5.22;;;6.30;99.90;;;;;;5155050;27;20038;-69
2023/03/29 03:10:00;;;;;;;7.95;5.78;;;6.20;99.90;;;;;;5136453;27;20043;-70
2023/03/29 03:12:26;;;;;;;7.05;5.15;;;6.20;99.90;;;;;;5155237;27;20069;-70
2023/03/29 03:14:51;;;;;;;7.47;6.28;;;6.20;99.90;;;;;;5154808;27;20082;-70
2023/03/29 03:17:21;;;;;;;8.60;6.07;;;6.10;99.90;;;;;;5136265;27;20117;-70
2023/03/29 03:19:48;;;;;;;9.95;6.35;;;6.20;99.90;;;;;;5154574;27;20051;-70
2023/03/29 03:22:14;;;;;;;7.32;5.50;;;6.10;99.90;;;;;;5154927;27;20050;-70
2023/03/29 03:24:39;;;;;;;7.32;5.60;;;6.20;99.90;;;;;;5155346;27;20042;-70
2023/03/29 03:27:05;;;;;;;7.45;5.32;;;6.20;99.90;;;;;;5154674;27;20430;-70
2023/03/29 03:29:30;;;;;;;9.85;5.90;;;6.20;99.90;;;;;;5154554;27;20501;-70
2023/03/29 03:31:56;;;;;;;7.53;6.20;;;6.20;99.90;;;;;;5154954;27;20049;-69
2023/03/29 03:34:22;;;;;;;8.00;6.95;;;6.20;99.90;;;;;;5154746;27;20089;-69
2023/03/29 03:36:48;;;;;;;7.63;6.65;;;6.20;99.90;;;;;;5154393;27;20471;-70
2023/03/29 03:39:13;;;;;;;6.88;6.25;;;6.20;99.90;;;;;;5154442;27;20046;-70
2023/03/29 03:41:39;;;;;;;8.88;6.85;;;6.20;99.90;;;;;;5135846;27;20074;-69
2023/03/29 03:44:05;;;;;;;10.23;6.60;;;6.20;99.90;;;;;;5154258;27;20042;-70
2023/03/29 03:46:31;;;;;;;10.68;6.63;;;6.20;99.90;;;;;;5154561;27;20137;-70
2023/03/29 03:48:58;;;;;;;8.50;7.00;;;6.20;99.90;;;;;;5154741;27;20042;-69
2023/03/29 03:51:24;;;;;;;9.55;7.05;;;6.20;99.90;;;;;;5154657;27;20423;-70
2023/03/29 03:53:50;;;;;;;11.52;6.88;;;6.20;99.90;;;;;;5154504;27;20054;-70
2023/03/29 03:56:16;;;;;;;9.00;6.80;;;6.20;99.90;;;;;;5153289;27;20500;-70
2023/03/29 03:58:42;;;;;;;10.82;7.75;;;6.20;99.90;;;;;;5135594;27;20114;-70
2023/03/29 04:01:08;;;;;;;11.20;8.40;;;6.20;99.90;;;;;;5154089;27;20471;-70
2023/03/29 04:03:34;;;;;;;9.45;8.45;;;6.20;99.90;;;;;;5154399;27;20055;-69
2023/03/29 04:06:01;;;;;;;10.52;8.52;;;6.30;99.90;;;;;;5154107;27;20046;-71
2023/03/29 04:08:27;;;;;;;10.15;8.18;;;6.30;99.90;;;;;;5135605;27;20049;-70
2023/03/29 04:10:55;;;;;;;11.15;8.35;;;6.30;99.90;;;;;;5135582;27;20042;-70
2023/03/29 04:13:21;;;;;;;11.82;8.52;;;6.30;99.90;;;;;;5153943;27;20053;-69
2023/03/29 04:15:48;;;;;;;13.68;8.73;;;6.30;99.90;;;;;;5154009;27;20042;-69
2023/03/29 04:18:14;;;;;;;12.32;8.93;;;6.30;99.90;;;;;;5154293;27;20043;-69
2023/03/29 04:20:40;;;;;;;11.18;8.73;;;6.30;99.90;;;;;;5153705;27;20058;-69
2023/03/29 04:23:06;;;;;;;10.27;9.18;;;6.30;99.90;;;;;;5153897;27;20408;-70
2023/03/29 04:25:32;;;;;;;10.98;8.73;;;6.30;99.90;;;;;;5154277;27;20039;-70
2023/03/29 04:27:57;;;;;;;11.98;9.50;;;6.30;99.90;;;;;;5154563;27;20456;-70
2023/03/29 04:30:23;;;;;;;13.68;9.18;;;6.30;99.90;;;;;;5154204;27;20114;-70
2023/03/29 04:32:49;;;;;;;12.73;8.15;;;6.30;99.90;;;;;;5153968;27;20054;-70
2023/03/29 04:35:15;;;;;;;13.30;9.05;;;6.30;99.90;;;;;;5154101;27;20529;-70
2023/03/29 04:37:40;;;;;;;10.68;8.27;;;6.30;99.90;;;;;;5153695;27;20042;-70
2023/03/29 04:40:08;;;;;;;11.43;9.45;;;6.30;99.90;;;;;;5153640;27;20134;-70
2023/03/29 04:42:36;;;;;;;14.05;9.27;;;6.30;99.90;;;;;;5153229;27;20493;-70
2023/03/29 04:45:01;;;;;;;13.55;9.93;;;6.30;99.90;;;;;;5153909;27;20046;-70
2023/03/29 04:47:28;;;;;;;10.93;8.93;;;6.30;99.90;;;;;;5153476;27;20111;-70
2023/03/29 04:49:55;;;;;;;16.85;10.27;;;6.30;99.90;;;;;;5118082;27;20062;-70
2023/03/29 04:52:21;;;;;;;12.60;9.18;;;6.30;99.90;;;;;;5135695;27;20049;-70
2023/03/29 04:54:46;;;;;;;12.20;9.77;;;6.30;99.90;;;;;;5153988;27;20058;-71
2023/03/29 04:57:12;;;;;;;11.80;9.30;;;6.30;99.90;;;;;;5153267;27;20531;-70
2023/03/29 04:59:38;;;;;;;12.07;10.23;;;6.30;99.90;;;;;;5153204;27;20049;-70
2023/03/29 05:02:04;;;;;;;14.48;10.13;;;6.30;99.90;;;;;;5153290;27;20057;-70
2023/03/29 05:04:31;;;;;;;10.13;9.07;;;6.30;99.90;;;;;;5153198;27;20484;-70
2023/03/29 05:06:57;;;;;;;11.32;9.45;;;6.30;99.90;;;;;;5135027;27;20057;-70
2023/03/29 05:09:24;;;;;;;15.77;9.90;;;6.30;99.90;;;;;;5138860;27;20042;-70
2023/03/29 05:11:50;;;;;;;12.05;9.25;;;6.30;99.90;;;;;;5139234;27;20043;-70
2023/03/29 05:14:16;;;;;;;12.93;8.88;;;6.40;99.90;;;;;;5157206;27;20042;-70
2023/03/29 05:16:42;;;;;;;13.63;9.55;;;6.30;99.90;;;;;;5138716;27;20553;-70
2023/03/29 05:19:10;;;;;;;11.23;9.73;;;6.40;99.90;;;;;;5122132;27;20046;-70
2023/03/29 05:21:36;;;;;;;12.52;9.50;;;6.40;99.90;;;;;;5156916;27;20070;-70
2023/03/29 05:24:03;;;;;;;10.30;9.18;;;6.40;99.90;;;;;;5157031;27;20054;-70
2023/03/29 05:26:29;;;;;;;11.27;9.30;;;6.40;99.90;;;;;;5138563;27;20043;-70
2023/03/29 05:28:55;;;;;;;13.50;9.73;;;6.40;99.90;;;;;;5156719;27;20217;-70
2023/03/29 05:31:22;;;;;;;11.80;9.50;;;6.40;99.90;;;;;;5156784;27;20050;-70
2023/03/29 05:33:49;;;;;;;12.15;9.40;;;6.40;99.90;;;;;;5156574;27;20122;-70
2023/03/29 05:36:17;;;;;;;12.70;9.82;;;6.40;99.90;;;;;;5156546;27;20051;-70
2023/03/29 05:38:45;;;;;;;11.35;9.98;;;6.40;99.90;;;;;;5156479;27;20058;-70
2023/03/29 05:41:12;;;;;;;10.93;8.75;;;6.40;99.90;;;;;;5156865;27;20130;-70
2023/03/29 05:43:38;;;;;;;12.45;9.70;;;6.40;99.90;;;;;;5138078;27;20119;-70
2023/03/29 05:46:05;;;;;;;12.88;9.75;;;6.40;99.90;;;;;;5156486;27;20506;-70
2023/03/29 05:48:31;;;;;;;15.45;9.07;;;6.40;99.90;;;;;;5156364;27;20078;-69
2023/03/29 05:50:57;;;;;;;11.45;9.23;;;6.40;99.90;;;;;;5156227;27;20494;-69
2023/03/29 05:53:25;;;;;;;12.88;9.73;;;6.40;99.90;;;;;;5156153;27;20096;-69
2023/03/29 05:55:51;;;;;;;11.63;9.57;;;6.40;99.90;;;;;;5156237;27;20098;-69
2023/03/29 05:58:17;;;;;;;14.38;9.70;;;6.40;99.90;;;;;;5137587;27;20046;-69
2023/03/29 06:00:43;;;;;;;11.32;9.52;;;6.40;99.90;;;;;;5156105;27;20163;-69
2023/03/29 06:03:18;;;;;;;16.83;9.85;;;6.40;99.90;;;;;;5138396;27;20108;-69
2023/03/29 06:05:45;;;;;;;11.45;9.30;;;6.40;99.90;;;;;;5156293;27;20058;-69
2023/03/29 06:08:11;;;;;;;14.63;9.82;;;6.40;99.90;;;;;;5156097;27;20106;-69
2023/03/29 06:10:37;;;;;;;14.80;11.00;;;6.40;99.90;;;;;;5156087;27;20046;-69
2023/03/29 06:13:04;;;;;;;14.73;10.05;;;6.40;99.90;;;;;;5156021;27;20053;-70
2023/03/29 06:15:31;;;;;;;13.82;10.02;;;6.40;99.90;;;;;;5156049;27;20051;-69
2023/03/29 06:17:58;;;;;;;14.52;10.70;;;6.40;99.90;;;;;;5120280;27;20053;-69
2023/03/29 06:20:24;;;;;;;14.48;10.98;;;6.40;99.90;;;;;;5155199;27;20123;-69
2023/03/29 06:22:49;;;;;;;12.88;10.23;;;6.40;99.90;;;;;;5138133;27;20436;-69
2023/03/29 06:25:16;;;;;;;14.57;9.98;;;6.40;99.90;;;;;;5156456;27;20057;-69
2023/03/29 06:27:42;;;;;;;14.90;10.68;;;6.20;99.90;;;;;;5155888;27;20130;-69
2023/03/29 06:30:08;;;;;;;14.18;10.43;;;6.40;99.90;;;;;;5155769;27;20085;-69
2023/03/29 06:32:34;;;;;;;12.20;10.25;;;6.50;99.90;;;;;;5155994;27;20038;-69
2023/03/29 06:35:01;;;;;;;12.32;10.10;;;6.50;99.90;;;;;;5137875;27;20054;-69
2023/03/29 06:37:28;;;;;;;12.45;10.38;;;6.50;99.90;;;;;;5155613;27;20043;-69
2023/03/29 06:39:53;;;;;;;15.10;10.27;;;6.50;99.90;;;;;;5155937;27;20049;-69
2023/03/29 06:42:19;;;;;;;16.08;10.95;;;6.50;99.90;;;;;;5155552;27;20038;-69
2023/03/29 06:44:46;;;;;;;17.70;11.38;;;6.50;99.90;;;;;;5155989;27;20061;-69
2023/03/29 06:47:16;;;;;;;12.45;9.95;;;6.50;99.90;;;;;;5155511;27;20464;-70
2023/03/29 06:49:42;;;;;;;14.27;11.40;;;6.60;99.90;;;;;;5155477;27;20053;-70
2023/03/29 06:52:09;;;;;;;15.27;11.43;;;6.60;99.90;;;;;;5136935;27;20046;-69
2023/03/29 06:54:34;;;;;;;14.52;11.32;;;6.60;99.90;;;;;;5155406;27;20125;-69
2023/03/29 06:57:00;;;;;;;13.90;10.65;;;6.60;99.90;;;;;;5155194;27;20082;-70
2023/03/29 06:59:27;;;;;;;13.98;11.30;;;6.60;99.90;;;;;;5155257;27;20042;-70
2023/03/29 07:01:53;;;;;;;14.63;11.75;;;6.60;99.90;;;;;;5155292;27;20039;-70
2023/03/29 07:04:22;;;;;;;16.17;10.75;;;6.70;99.90;;;;;;5155579;27;20491;-69
2023/03/29 07:06:50;;;;;;;11.48;10.05;;;6.70;99.90;;;;;;5155150;27;20074;-70
2023/03/29 07:09:18;;;;;;;13.60;10.30;;;6.70;99.90;;;;;;5155084;27;20139;-69
2023/03/29 07:11:45;;;;;;;14.40;11.18;;;6.80;99.90;;;;;;5154981;27;20529;-69
2023/03/29 07:14:11;;;;;;;13.77;11.05;;;6.80;99.90;;;;;;5154930;27;20046;-69
2023/03/29 07:16:37;;;;;;;14.18;11.00;;;6.80;99.90;;;;;;5154869;27;20508;-69
2023/03/29 07:19:04;;;;;;;14.88;10.43;;;6.80;99.90;;;;;;5154557;27;20079;-69
2023/03/29 07:21:30;;;;;;;13.85;9.85;;;6.80;99.90;;;;;;5154929;27;20099;-69
2023/03/29 07:24:00;;;;;;;12.18;10.32;;;6.90;99.90;;;;;;5155127;27;20116;-69
2023/03/29 07:26:27;;;;;;;15.43;11.02;;;6.90;99.90;;;;;;5136833;27;20081;-68
2023/03/29 07:28:53;;;;;;;11.25;9.98;;;6.90;99.90;;;;;;5154356;27;20047;-69
2023/03/29 07:31:19;;;;;;;11.90;10.55;;;7.00;99.90;;;;;;5136521;27;20051;-69
2023/03/29 07:33:46;;;;;;;12.45;9.60;;;7.10;99.90;;;;;;5154332;27;20133;-69
2023/03/29 07:36:12;;;;;;;13.63;10.50;;;7.20;99.90;;;;;;5154412;27;20046;-69
2023/03/29 07:38:37;;;;;;;10.73;8.68;;;7.30;99.90;;;;;;5135761;27;20042;-69
2023/03/29 07:41:05;;;;;;;10.88;9.27;;;7.30;99.90;;;;;;5119194;27;20061;-69
2023/03/29 07:43:33;;;;;;;12.27;10.05;;;7.30;99.90;;;;;;5154328;27;20062;-69
2023/03/29 07:46:03;;;;;;;11.30;9.55;;;7.30;99.90;;;;;;5154705;27;20046;-69
2023/03/29 07:48:30;;;;;;;10.63;9.52;;;7.30;99.90;;;;;;5154227;27;20118;-69
2023/03/29 07:50:56;;;;;;;10.57;8.90;;;7.40;99.90;;;;;;5154821;27;20046;-69
2023/03/29 07:53:22;;;;;;;11.48;9.68;;;7.30;99.90;;;;;;5154509;27;20045;-70
2023/03/29 07:55:48;;;;;;;10.57;9.05;;;7.40;99.90;;;;;;5154579;27;20056;-69
2023/03/29 07:58:14;;;;;;;10.35;8.90;;;7.40;99.90;;;;;;5154303;27;20123;-70
2023/03/29 08:00:42;;;;;;;10.70;8.57;;;7.50;99.90;;;;;;5154116;27;20046;-69
2023/03/29 08:03:10;;;;;;;12.05;9.05;;;7.50;99.90;;;;;;5136008;27;20050;-69
2023/03/29 08:05:36;;;;;;;12.63;9.07;;;7.50;99.90;;;;;;5136078;27;20047;-70
2023/03/29 08:08:02;;;;;;;10.98;8.57;;;7.50;99.90;;;;;;5153676;27;20129;-69
2023/03/29 08:10:28;;;;;;;9.40;8.15;;;7.60;99.90;;;;;;5154179;27;20047;-70
2023/03/29 08:12:54;;;;;;;12.68;7.75;;;7.60;99.90;;;;;;5135714;27;20069;-69
2023/03/29 08:15:19;;;;;;;12.77;8.63;;;7.70;99.90;;;;;;5153933;27;20459;-71
2023/03/29 08:17:45;;;;;;;12.13;9.02;;;7.80;99.90;;;;;;5154870;27;20045;-71
2023/03/29 08:20:13;;;;;;;12.35;7.88;;;7.80;99.90;;;;;;5153980;27;20054;-71
2023/03/29 08:22:40;;;;;;;11.02;8.25;;;7.90;99.90;;;;;;5153719;27;20046;-71
2023/03/29 08:25:06;;;;;;;10.10;8.52;;;7.90;99.90;;;;;;5153796;27;20043;-71
2023/03/29 08:27:33;;;;;;;9.48;8.07;;;8.00;99.90;;;;;;5153820;27;20476;-71
2023/03/29 08:29:58;;;;;;;10.95;8.07;;;8.10;99.90;;;;;;5153726;27;20121;-71
2023/03/29 08:32:24;;;;;;;11.25;9.43;;;8.20;99.90;;;;;;5153643;27;20086;-71
2023/03/29 08:34:50;;;;;;;10.13;7.95;;;8.30;99.90;;;;;;5153610;27;20097;-69
2023/03/29 08:37:16;;;;;;;10.57;7.88;;;8.40;99.90;;;;;;5135084;27;20054;-69
2023/03/29 08:39:42;;;;;;;12.18;7.70;;;8.50;99.90;;;;;;5154207;27;20131;-69
2023/03/29 08:42:32;;;;;;;10.93;7.13;;;8.50;99.90;;;;;;5119580;27;20078;-69
2023/03/29 08:45:34;;;;;;;9.05;8.15;;;8.50;99.90;;;;;;5158201;27;20049;-69
2023/03/29 08:48:02;;;;;;;11.70;8.30;;;8.60;99.90;;;;;;5157758;27;20058;-69
2023/03/29 08:50:42;;;;;;;9.98;8.07;;;8.70;99.90;;;;;;5139278;27;20545;-70
2023/03/29 08:53:17;;;;;;;9.98;7.70;;;8.90;99.90;;;;;;5157591;27;20042;-69
2023/03/29 08:55:46;;;;;;;11.73;7.22;;;9.10;99.90;;;;;;5158103;27;20078;-70
2023/03/29 08:58:19;;;;;;;10.27;7.88;;;9.30;99.90;;;;;;5157533;27;20054;-70
2023/03/29 09:00:50;;;;;;;13.00;7.15;;;9.40;99.90;;;;;;5157358;27;20466;-70
2023/03/29 09:03:33;;;;;;;8.35;6.95;;;9.50;99.90;;;;;;5157669;27;20043;-70
2023/03/29 09:06:04;;;;;;;9.13;6.68;;;9.90;99.90;;;;;;5157511;27;20547;-70
2023/03/29 09:08:31;;;;;;;10.05;6.53;;;10.00;99.90;;;;;;5157472;27;20367;-70
2023/03/29 09:11:17;;;;;;;8.23;6.35;;;9.90;99.90;;;;;;5157270;27;20164;-70
2023/03/29 09:13:52;;;;;;;8.80;6.82;;;9.90;99.90;;;;;;5139248;27;20463;-70
2023/03/29 09:16:27;;;;;;;9.88;7.28;;;9.80;99.90;;;;;;5157620;27;20103;-70
2023/03/29 09:19:13;;;;;;;12.65;7.25;;;9.80;99.90;;;;;;5157288;27;20050;-70
2023/03/29 09:21:49;;;;;;;12.45;7.43;;;9.90;99.90;;;;;;5138437;27;20059;-70
2023/03/29 09:24:45;;;;;;;13.73;6.93;;;10.00;99.90;;;;;;5157077;27;20046;-70
2023/03/29 09:27:31;;;;;;;8.35;6.93;;;10.00;99.90;;;;;;5156950;27;20035;-70
2023/03/29 09:30:03;;;;;;;9.05;6.40;;;10.00;99.90;;;;;;5157624;27;20073;-70
2023/03/29 09:32:53;;;;;;;8.40;7.05;;;10.10;99.90;;;;;;5156580;27;20395;-70
2023/03/29 09:35:30;;;;;;;10.68;7.10;;;10.30;99.90;;;;;;5156807;27;20043;-70
2023/03/29 09:37:57;;;;;;;9.38;7.05;;;10.70;99.90;;;;;;5156616;27;20030;-70
2023/03/29 09:40:36;;;;;;;7.82;6.45;;;11.00;99.90;;;;;;5156650;27;20046;-70
2023/03/29 09:43:06;;;;;;;10.27;6.82;;;11.10;99.90;;;;;;5156999;27;20042;-70
2023/03/29 09:45:35;;;;;;;8.52;6.30;;;11.20;99.90;;;;;;5156499;27;20050;-70
2023/03/29 09:48:13;;;;;;;11.20;7.30;;;11.40;99.90;;;;;;5156932;27;20058;-70
2023/03/29 09:50:50;;;;;;;9.07;6.60;;;11.30;99.90;;;;;;5156510;27;20097;-70
2023/03/29 09:53:18;;;;;;;9.93;6.32;;;11.20;99.90;;;;;;5156627;27;20050;-70
2023/03/29 09:55:47;;;;;;;10.35;7.60;;;11.30;99.90;;;;;;5138531;27;20035;-70
2023/03/29 09:58:19;;;;;;;10.45;6.57;;;11.30;99.90;;;;;;5156332;27;20046;-69
2023/03/29 10:00:47;;;;;;;12.23;6.70;;;11.30;99.90;;;;;;5157007;27;20046;-70
2023/03/29 10:03:27;;;;;;;13.07;6.40;;;11.20;99.90;;;;;;5156316;27;20054;-70
2023/03/29 10:05:55;;;;;;;11.05;7.30;;;11.20;99.90;;;;;;5137871;27;20517;-70
2023/03/29 10:08:30;;;;;;;11.52;6.57;;;11.20;99.90;;;;;;5156143;27;20405;-70
2023/03/29 10:10:57;;;;;;;13.85;7.15;;;11.20;99.90;;;;;;5138483;27;20066;-70
2023/03/29 10:13:29;;;;;;;10.88;7.30;;;11.40;99.90;;;;;;5156517;27;20484;-70
2023/03/29 10:16:15;;;;;;;11.13;7.13;;;11.40;99.90;;;;;;5156020;27;20038;-70
2023/03/29 10:18:42;;;;;;;9.32;6.93;;;11.50;99.90;;;;;;5156104;27;20091;-70
2023/03/29 10:21:13;;;;;;;12.95;7.28;;;11.40;99.90;;;;;;5155562;27;20552;-70
2023/03/29 10:23:39;;;;;;;11.43;7.30;;;11.40;99.90;;;;;;5155909;27;20046;-70
2023/03/29 10:26:08;;;;;;;7.50;6.70;;;11.60;99.90;;;;;;5156203;27;20050;-70
2023/03/29 10:28:36;;;;;;;10.90;7.38;;;11.60;99.90;;;;;;5155831;27;20078;-70
2023/03/29 10:31:02;;;;;;;13.55;8.20;;;11.70;99.90;;;;;;5120397;27;20431;-70
2023/03/29 10:33:34;;;;;;;8.60;6.88;;;11.80;99.90;;;;;;5155658;27;20053;-70
2023/03/29 10:36:02;;;;;;;11.27;7.35;;;11.90;99.90;;;;;;5155266;27;20054;-70
2023/03/29 10:38:29;;;;;;;10.63;7.45;;;12.10;99.90;;;;;;5155477;27;20041;-70
2023/03/29 10:41:08;;;;;;;9.90;7.03;;;12.00;99.90;;;;;;5155482;27;20050;-69
2023/03/29 10:43:42;;;;;;;12.05;7.65;;;12.10;99.90;;;;;;5155640;27;20042;-70
2023/03/29 10:46:16;;;;;;;9.45;6.70;;;12.10;99.90;;;;;;5155536;27;20058;-70
2023/03/29 10:48:47;;;;;;;10.68;7.95;;;12.30;99.90;;;;;;5155567;27;20087;-70
2023/03/29 10:51:14;;;;;;;12.40;7.82;;;12.20;99.90;;;;;;5137295;27;20043;-70
2023/03/29 10:53:41;;;;;;;14.98;8.77;;;12.20;99.90;;;;;;5155068;27;20042;-70
2023/03/29 10:56:39;;;;;;;9.77;7.72;;;12.40;99.90;;;;;;5155585;27;20043;-70
2023/03/29 10:59:31;;;;;;;10.88;7.65;;;12.40;99.90;;;;;;5155275;27;20054;-70
2023/03/29 11:02:12;;;;;;;11.95;8.65;;;12.60;99.90;;;;;;5155503;27;20095;-71
2023/03/29 11:04:55;;;;;;;11.35;8.40;;;12.80;99.90;;;;;;5154767;27;20078;-70
2023/03/29 11:07:35;;;;;;;;;;;12.80;99.90;;;;;;5155551;27;20034;-70
2023/03/29 11:10:25;;;;;;;11.00;8.43;;;13.00;99.90;;;;;;5154960;27;19923;-70
2023/03/29 11:13:24;;;;;;;11.57;8.10;;;13.20;99.90;;;;;;5154867;27;20046;-69
2023/03/29 11:15:55;;;;;;;10.70;7.65;;;13.10;99.90;;;;;;5108674;27;20078;-70
2023/03/29 11:18:51;;;;;;;10.52;8.25;;;13.00;99.90;;;;;;5154816;27;20047;-70
2023/03/29 11:21:36;;;;;;;14.38;8.60;;;13.20;99.90;;;;;;5154498;27;20077;-69
2023/03/29 11:24:32;;;;;;;12.02;8.00;;;13.50;99.90;;;;;;5119301;27;20047;-69
2023/03/29 11:27:24;;;;;;;10.35;7.82;;;13.60;99.90;;;;;;5155089;27;20042;-69
2023/03/29 11:30:35;;;;;;;11.43;8.65;;;13.80;99.90;;;;;;5125604;27;20050;-69
2023/03/29 11:33:23;;;;;;;13.00;8.23;;;13.80;99.90;;;;;;5070386;28;20070;-70
2023/03/29 11:36:29;;;;;;;11.55;7.53;;;13.80;99.90;;;;;;5070193;28;20140;-69
2023/03/29 11:39:12;;;;;;;10.85;8.77;;;13.90;99.90;;;;;;5144953;27;20069;-69
2023/03/29 11:41:42;;;;;;;10.05;7.25;;;14.00;99.90;;;;;;5154322;27;20039;-69
2023/03/29 11:44:16;;;;;;;11.10;8.00;;;14.00;99.90;;;;;;5154465;27;20046;-69
2023/03/29 11:46:50;;;;;;;15.35;8.90;;;14.10;99.90;;;;;;5154133;27;20046;-70
2023/03/29 11:49:37;;;;;;;13.65;8.43;;;14.10;99.90;;;;;;5154105;27;20046;-70
2023/03/29 11:52:17;;;;;;;9.38;7.93;;;14.20;99.90;;;;;;5153879;27;20056;-72
2023/03/29 11:54:51;;;;;;;12.13;8.30;;;14.10;99.90;;;;;;5154095;27;20125;-70
2023/03/29 11:57:55;;;;;;;8.27;7.07;;;14.10;99.90;;;;;;5154341;27;20038;-70
2023/03/29 12:00:31;;;;;;;8.75;7.10;;;14.20;99.90;;;;;;5151694;27;20061;-70
2023/03/29 12:03:10;;;;;;;8.27;7.43;;;14.20;99.90;;;;;;5154230;27;20125;-70
2023/03/29 12:06:08;;;;;;;8.77;7.85;;;14.30;99.90;;;;;;5154136;27;20129;-70
2023/03/29 12:08:39;;;;;;;10.70;7.97;;;14.20;99.90;;;;;;5146996;27;20054;-70
2023/03/29 12:11:10;;;;;;;9.73;7.75;;;14.20;99.90;;;;;;5154439;27;20046;-72
2023/03/29 12:13:48;;;;;;;12.90;7.90;;;14.30;99.90;;;;;;5154573;27;20050;-70
2023/03/29 12:16:38;;;;;;;8.27;6.97;;;14.40;99.90;;;;;;5153512;27;20042;-70
2023/03/29 12:19:26;;;;;;;7.60;6.35;;;14.50;99.90;;;;;;5153910;27;20042;-72
2023/03/29 12:21:54;;;;;;;8.13;6.53;;;14.40;99.90;;;;;;5139435;27;20516;-72
2023/03/29 12:24:21;;;;;;;8.43;6.90;;;14.60;99.90;;;;;;5153764;27;20140;-71
2023/03/29 12:27:15;;;;;;;11.07;7.15;;;14.90;99.90;;;;;;5153977;27;20038;-72
2023/03/29 12:30:00;;;;;;;9.77;7.38;;;15.10;99.90;;;;;;5153557;27;20174;-72
2023/03/29 12:32:50;;;;;;;8.25;6.80;;;15.60;99.90;;;;;;5135096;27;20042;-73
2023/03/29 12:35:26;;;;;;;8.18;6.30;;;15.30;99.90;;;;;;5153507;27;20039;-72
2023/03/29 12:38:18;;;;;;;9.77;6.60;;;15.30;99.90;;;;;;5153414;27;20051;-73
2023/03/29 12:40:47;;;;;;;7.78;5.80;;;15.10;99.90;;;;;;5153529;27;20102;-72
2023/03/29 12:43:32;;;;;;;9.18;6.22;;;15.00;99.90;;;;;;5153448;27;20385;-73
2023/03/29 12:46:06;;;;;;;8.70;5.43;;;15.00;99.90;;;;;;5135845;27;20049;-73
2023/03/29 12:48:33;;;;;;;8.15;6.15;;;14.90;99.90;;;;;;5153878;27;20061;-72
2023/03/29 12:51:21;;;;;;;9.45;5.60;;;14.90;99.90;;;;;;5153453;27;20050;-73
2023/03/29 12:53:53;;;;;;;9.35;6.13;;;14.90;99.90;;;;;;5153695;27;20038;-72
2023/03/29 12:56:22;;;;;;;7.15;5.43;;;15.00;99.90;;;;;;5153253;27;20071;-72
2023/03/29 12:58:51;;;;;;;7.88;5.70;;;15.20;99.90;;;;;;5153811;27;20055;-73
2023/03/29 13:01:38;;;;;;;10.18;5.55;;;15.10;99.90;;;;;;5153346;27;20053;-72
2023/03/29 13:04:18;;;;;;;7.13;5.43;;;15.20;99.90;;;;;;5153537;27;20078;-72
2023/03/29 13:06:47;;;;;;;6.47;5.55;;;15.00;99.90;;;;;;5153675;27;20125;-72
2023/03/29 13:09:34;;;;;;;5.53;4.93;;;15.00;99.90;;;;;;5134860;27;20125;-72
2023/03/29 13:12:15;;;;;;;7.72;6.22;;;15.10;99.90;;;;;;5153736;27;20123;-72